LJPZ

Portoroz Airport

Portoroz, Slovenia
TAF AMD LJPZ 210945Z 2109/2118 30007KT 9999 FEW050 BECMG 2109/2111 23008KT
Issued Valid From Valid To
Jun-21 @ 09:45 UTC
(20 minutes ago)
Jun-21 @ 09:00 UTC
(an hour ago)
Jun-21 @ 18:00 UTC
(in 8 hours)
Jun-21 @ 09:00 to Jun-21 @ 18:00
TAF AMD LJPZ 210945Z 2109/2118 30007KT 9999 FEW050
Wind Visibility Clouds
300° at 7 knots 10,000+ meters
  • Few at 5,000' AGL
Becoming Jun-21 @ 09:00 to Jun-21 @ 18:00
BECMG 2109/2111 23008KT
Wind Visibility Clouds
230° at 8 knots 10,000+ meters
  • Few at 5,000' AGL
TAF AMD LJPZ 210945Z 2109/2118 30007KT 9999 FEW050 BECMG 2109/2111 23008KT
Issued Jun-21 @ 09:45 UTC
(20 minutes ago)
Valid From Jun-21 @ 09:00 UTC
(an hour ago)
Valid To Jun-21 @ 18:00 UTC
(in 8 hours)
Jun-21 @ 09:00 - Jun-21 @ 18:00
Wind Visibility
300° at 7 knots 10,000+ meters
Clouds
  • Few at 5,000' AGL
Becoming Jun-21 @ 09:00 - Jun-21 @ 18:00
Wind Visibility
230° at 8 knots 10,000+ meters
Clouds
  • Few at 5,000' AGL